sensor_id;sensor_type;location;lat;lon;timestamp;pressure;altitude;pressure_sealevel;temperature;humidity
42067;BME280;27734;47.028;28.820;2024-03-25T00:01:05;99255.30;;;6.04;91.78
42067;BME280;27734;47.028;28.820;2024-03-25T00:03:43;99248.29;;;6.02;92.32
42067;BME280;27734;47.028;28.820;2024-03-25T00:06:14;99227.36;;;5.99;92.31
42067;BME280;27734;47.028;28.820;2024-03-25T00:08:45;99214.14;;;5.94;92.72
42067;BME280;27734;47.028;28.820;2024-03-25T00:11:17;99188.11;;;5.94;93.63
42067;BME280;27734;47.028;28.820;2024-03-25T00:13:48;99182.05;;;5.95;93.70
42067;BME280;27734;47.028;28.820;2024-03-25T00:16:19;99189.86;;;5.95;93.00
42067;BME280;27734;47.028;28.820;2024-03-25T00:18:51;99172.53;;;5.96;93.97
42067;BME280;27734;47.028;28.820;2024-03-25T00:21:22;99166.42;;;5.95;92.83
42067;BME280;27734;47.028;28.820;2024-03-25T00:23:54;99163.08;;;5.98;94.49
42067;BME280;27734;47.028;28.820;2024-03-25T00:26:26;99167.33;;;5.96;93.26
42067;BME280;27734;47.028;28.820;2024-03-25T00:28:58;99167.28;;;5.94;93.67
42067;BME280;27734;47.028;28.820;2024-03-25T00:31:29;99180.20;;;5.91;93.07
42067;BME280;27734;47.028;28.820;2024-03-25T00:34:00;99189.60;;;5.87;93.11
42067;BME280;27734;47.028;28.820;2024-03-25T00:36:31;99181.74;;;5.86;93.34
42067;BME280;27734;47.028;28.820;2024-03-25T00:39:03;99180.71;;;5.81;93.65
42067;BME280;27734;47.028;28.820;2024-03-25T00:41:35;99186.73;;;5.80;93.54
42067;BME280;27734;47.028;28.820;2024-03-25T00:44:07;99198.78;;;5.76;93.35
42067;BME280;27734;47.028;28.820;2024-03-25T00:46:38;99203.93;;;5.74;94.04
42067;BME280;27734;47.028;28.820;2024-03-25T00:49:11;99211.53;;;5.68;93.50
42067;BME280;27734;47.028;28.820;2024-03-25T00:51:46;99211.42;;;5.65;93.68
42067;BME280;27734;47.028;28.820;2024-03-25T00:54:17;99208.81;;;5.65;94.19
42067;BME280;27734;47.028;28.820;2024-03-25T00:56:49;99219.12;;;5.62;93.43
42067;BME280;27734;47.028;28.820;2024-03-25T00:59:21;99227.84;;;5.63;94.04
42067;BME280;27734;47.028;28.820;2024-03-25T01:01:52;99230.44;;;5.63;93.93
42067;BME280;27734;47.028;28.820;2024-03-25T01:04:23;99213.05;;;5.62;94.86
42067;BME280;27734;47.028;28.820;2024-03-25T01:06:55;99193.90;;;5.60;94.70
42067;BME280;27734;47.028;28.820;2024-03-25T01:09:26;99198.19;;;5.59;95.52
42067;BME280;27734;47.028;28.820;2024-03-25T01:11:57;99205.08;;;5.57;95.25
42067;BME280;27734;47.028;28.820;2024-03-25T01:14:28;99195.54;;;5.57;95.05
42067;BME280;27734;47.028;28.820;2024-03-25T01:17:00;99187.68;;;5.56;95.62
42067;BME280;27734;47.028;28.820;2024-03-25T01:19:31;99192.88;;;5.56;95.48
42067;BME280;27734;47.028;28.820;2024-03-25T01:22:03;99182.47;;;5.56;95.40
42067;BME280;27734;47.028;28.820;2024-03-25T01:24:35;99180.78;;;5.56;95.43
42067;BME280;27734;47.028;28.820;2024-03-25T01:27:07;99180.83;;;5.58;95.86
42067;BME280;27734;47.028;28.820;2024-03-25T01:29:38;99186.04;;;5.58;95.87
42067;BME280;27734;47.028;28.820;2024-03-25T01:32:09;99189.56;;;5.60;95.98
42067;BME280;27734;47.028;28.820;2024-03-25T01:34:40;99185.08;;;5.56;95.68
42067;BME280;27734;47.028;28.820;2024-03-25T01:37:12;99171.96;;;5.53;95.79
42067;BME280;27734;47.028;28.820;2024-03-25T01:39:43;99157.20;;;5.52;96.14
42067;BME280;27734;47.028;28.820;2024-03-25T01:42:15;99159.70;;;5.49;97.00
42067;BME280;27734;47.028;28.820;2024-03-25T01:44:46;99148.17;;;5.42;96.55
42067;BME280;27734;47.028;28.820;2024-03-25T01:47:18;99137.61;;;5.37;96.56
42067;BME280;27734;47.028;28.820;2024-03-25T01:49:49;99134.13;;;5.37;96.88
42067;BME280;27734;47.028;28.820;2024-03-25T01:52:24;99133.26;;;5.36;96.29
42067;BME280;27734;47.028;28.820;2024-03-25T01:54:56;99121.18;;;5.38;96.87
42067;BME280;27734;47.028;28.820;2024-03-25T01:57:27;99111.75;;;5.42;96.37
42067;BME280;27734;47.028;28.820;2024-03-25T01:59:59;99109.20;;;5.44;96.63
42067;BME280;27734;47.028;28.820;2024-03-25T02:02:34;99118.84;;;5.46;97.13
42067;BME280;27734;47.028;28.820;2024-03-25T02:05:08;99133.84;;;5.53;97.00
42067;BME280;27734;47.028;28.820;2024-03-25T02:07:39;99135.69;;;5.57;96.62
42067;BME280;27734;47.028;28.820;2024-03-25T02:10:11;99139.86;;;5.52;96.45
42067;BME280;27734;47.028;28.820;2024-03-25T02:12:45;99134.50;;;5.48;95.96
42067;BME280;27734;47.028;28.820;2024-03-25T02:15:17;99125.72;;;5.44;96.66
42067;BME280;27734;47.028;28.820;2024-03-25T02:17:48;99134.45;;;5.46;96.41
42067;BME280;27734;47.028;28.820;2024-03-25T02:20:20;99124.81;;;5.44;96.47
42067;BME280;27734;47.028;28.820;2024-03-25T02:22:51;99125.72;;;5.44;96.59
42067;BME280;27734;47.028;28.820;2024-03-25T02:25:23;99112.97;;;5.52;97.13
42067;BME280;27734;47.028;28.820;2024-03-25T02:27:55;99108.74;;;5.55;97.68
42067;BME280;27734;47.028;28.820;2024-03-25T02:30:26;99093.95;;;5.54;97.05
42067;BME280;27734;47.028;28.820;2024-03-25T02:32:58;99084.45;;;5.55;97.92
42067;BME280;27734;47.028;28.820;2024-03-25T02:35:29;99087.16;;;5.58;97.20
42067;BME280;27734;47.028;28.820;2024-03-25T02:38:02;99092.56;;;5.64;97.33
42067;BME280;27734;47.028;28.820;2024-03-25T02:40:34;99102.97;;;5.64;96.99
42067;BME280;27734;47.028;28.820;2024-03-25T02:43:06;99100.27;;;5.61;96.72
42067;BME280;27734;47.028;28.820;2024-03-25T02:45:38;99090.58;;;5.57;97.06
42067;BME280;27734;47.028;28.820;2024-03-25T02:48:10;99099.16;;;5.54;97.08
42067;BME280;27734;47.028;28.820;2024-03-25T02:50:41;99103.48;;;5.54;97.13
42067;BME280;27734;47.028;28.820;2024-03-25T02:53:12;99099.91;;;5.50;96.98
42067;BME280;27734;47.028;28.820;2024-03-25T02:55:44;99095.48;;;5.48;97.00
42067;BME280;27734;47.028;28.820;2024-03-25T02:58:15;99088.49;;;5.47;97.10
42067;BME280;27734;47.028;28.820;2024-03-25T03:00:46;99098.80;;;5.44;97.22
42067;BME280;27734;47.028;28.820;2024-03-25T03:03:17;99097.16;;;5.46;97.43
42067;BME280;27734;47.028;28.820;2024-03-25T03:05:49;99103.13;;;5.43;97.05
42067;BME280;27734;47.028;28.820;2024-03-25T03:08:20;99105.78;;;5.45;97.04
42067;BME280;27734;47.028;28.820;2024-03-25T03:10:51;99112.77;;;5.46;97.73
42067;BME280;27734;47.028;28.820;2024-03-25T03:13:23;99110.05;;;5.43;97.46
42067;BME280;27734;47.028;28.820;2024-03-25T03:15:54;99107.41;;;5.41;97.83
42067;BME280;27734;47.028;28.820;2024-03-25T03:18:25;99104.86;;;5.43;97.82
42067;BME280;27734;47.028;28.820;2024-03-25T03:20:57;99103.07;;;5.42;98.40
42067;BME280;27734;47.028;28.820;2024-03-25T03:23:28;99096.95;;;5.39;97.87
42067;BME280;27734;47.028;28.820;2024-03-25T03:26:00;99101.30;;;5.40;98.38
42067;BME280;27734;47.028;28.820;2024-03-25T03:28:32;99111.03;;;5.46;98.47
42067;BME280;27734;47.028;28.820;2024-03-25T03:31:03;99111.03;;;5.46;98.08
42067;BME280;27734;47.028;28.820;2024-03-25T03:33:34;99104.00;;;5.44;98.55
42067;BME280;27734;47.028;28.820;2024-03-25T03:36:07;99108.33;;;5.43;97.99
42067;BME280;27734;47.028;28.820;2024-03-25T03:38:39;99101.30;;;5.40;98.56
42067;BME280;27734;47.028;28.820;2024-03-25T03:41:10;99098.59;;;5.37;98.10
42067;BME280;27734;47.028;28.820;2024-03-25T03:43:41;99102.05;;;5.36;99.05
42067;BME280;27734;47.028;28.820;2024-03-25T03:46:13;99095.77;;;5.31;99.36
42067;BME280;27734;47.028;28.820;2024-03-25T03:48:44;99102.70;;;5.31;99.38
42067;BME280;27734;47.028;28.820;2024-03-25T03:51:15;99087.00;;;5.28;99.39
42067;BME280;27734;47.028;28.820;2024-03-25T03:53:47;99089.55;;;5.26;99.03
42067;BME280;27734;47.028;28.820;2024-03-25T03:56:18;99086.02;;;5.24;99.39
42067;BME280;27734;47.028;28.820;2024-03-25T03:58:49;99083.41;;;5.24;99.51
42067;BME280;27734;47.028;28.820;2024-03-25T04:01:21;99073.02;;;5.24;99.72
42067;BME280;27734;47.028;28.820;2024-03-25T04:03:52;99059.14;;;5.24;99.40
42067;BME280;27734;47.028;28.820;2024-03-25T04:06:23;99059.24;;;5.27;100.00
42067;BME280;27734;47.028;28.820;2024-03-25T04:08:55;99054.97;;;5.29;100.00
42067;BME280;27734;47.028;28.820;2024-03-25T04:11:27;99045.48;;;5.31;99.65
42067;BME280;27734;47.028;28.820;2024-03-25T04:13:58;99040.38;;;5.34;99.84
42067;BME280;27734;47.028;28.820;2024-03-25T04:16:30;99038.76;;;5.37;99.79
42067;BME280;27734;47.028;28.820;2024-03-25T04:19:01;99044.11;;;5.42;99.68
42067;BME280;27734;47.028;28.820;2024-03-25T04:21:33;99046.72;;;5.42;99.93
42067;BME280;27734;47.028;28.820;2024-03-25T04:24:05;99055.22;;;5.36;99.02
42067;BME280;27734;47.028;28.820;2024-03-25T04:26:36;99070.63;;;5.30;99.19
42067;BME280;27734;47.028;28.820;2024-03-25T04:29:08;99084.34;;;5.26;99.09
42067;BME280;27734;47.028;28.820;2024-03-25T04:31:39;99081.64;;;5.23;99.20
42067;BME280;27734;47.028;28.820;2024-03-25T04:34:11;99079.89;;;5.22;99.39
42067;BME280;27734;47.028;28.820;2024-03-25T04:36:43;99071.18;;;5.21;100.00
42067;BME280;27734;47.028;28.820;2024-03-25T04:39:14;99070.97;;;5.15;99.14
42067;BME280;27734;47.028;28.820;2024-03-25T04:41:44;99089.17;;;5.15;99.44
42067;BME280;27734;47.028;28.820;2024-03-25T04:44:14;99096.09;;;5.15;99.73
42067;BME280;27734;47.028;28.820;2024-03-25T04:46:45;99096.05;;;5.13;99.99
42067;BME280;27734;47.028;28.820;2024-03-25T04:49:15;99089.02;;;5.11;100.00
42067;BME280;27734;47.028;28.820;2024-03-25T04:51:45;99076.06;;;5.12;99.98
42067;BME280;27734;47.028;28.820;2024-03-25T04:54:16;99057.91;;;5.14;100.00
42067;BME280;27734;47.028;28.820;2024-03-25T04:56:46;99048.52;;;5.17;100.00
42067;BME280;27734;47.028;28.820;2024-03-25T04:59:16;99052.92;;;5.20;100.00
42067;BME280;27734;47.028;28.820;2024-03-25T05:01:47;99059.08;;;5.22;99.92
42067;BME280;27734;47.028;28.820;2024-03-25T05:04:17;99056.43;;;5.20;99.90
42067;BME280;27734;47.028;28.820;2024-03-25T05:06:48;99052.05;;;5.19;99.97
42067;BME280;27734;47.028;28.820;2024-03-25T05:09:18;99035.58;;;5.19;99.99
42067;BME280;27734;47.028;28.820;2024-03-25T05:11:49;99015.70;;;5.21;100.00
42067;BME280;27734;47.028;28.820;2024-03-25T05:14:19;99026.92;;;5.20;100.00
42067;BME280;27734;47.028;28.820;2024-03-25T05:16:49;99027.88;;;5.22;100.00
42067;BME280;27734;47.028;28.820;2024-03-25T05:19:20;99037.32;;;5.20;100.00
42067;BME280;27734;47.028;28.820;2024-03-25T05:21:50;99035.58;;;5.19;100.00
42067;BME280;27734;47.028;28.820;2024-03-25T05:24:21;99045.88;;;5.16;100.00
42067;BME280;27734;47.028;28.820;2024-03-25T05:26:52;99035.42;;;5.14;100.00
42067;BME280;27734;47.028;28.820;2024-03-25T05:29:23;99035.47;;;5.16;100.00
42067;BME280;27734;47.028;28.820;2024-03-25T05:32:00;99025.07;;;5.16;100.00
42067;BME280;27734;47.028;28.820;2024-03-25T05:34:31;99033.84;;;5.19;100.00
42067;BME280;27734;47.028;28.820;2024-03-25T05:37:01;99042.52;;;5.20;100.00
42067;BME280;27734;47.028;28.820;2024-03-25T05:39:32;99048.58;;;5.19;100.00
42067;BME280;27734;47.028;28.820;2024-03-25T05:42:02;99053.67;;;5.16;100.00
42067;BME280;27734;47.028;28.820;2024-03-25T05:44:33;99047.62;;;5.17;100.00
42067;BME280;27734;47.028;28.820;2024-03-25T05:47:03;99057.14;;;5.16;100.00
42067;BME280;27734;47.028;28.820;2024-03-25T05:49:33;99057.09;;;5.15;100.00
42067;BME280;27734;47.028;28.820;2024-03-25T05:52:04;99057.91;;;5.14;100.00
42067;BME280;27734;47.028;28.820;2024-03-25T05:54:35;99058.02;;;5.17;100.00
42067;BME280;27734;47.028;28.820;2024-03-25T05:57:06;99074.42;;;5.14;100.00
42067;BME280;27734;47.028;28.820;2024-03-25T05:59:37;99056.98;;;5.12;100.00
42067;BME280;27734;47.028;28.820;2024-03-25T06:02:07;99051.73;;;5.10;100.00
42067;BME280;27734;47.028;28.820;2024-03-25T06:04:38;99055.21;;;5.11;100.00
42067;BME280;27734;47.028;28.820;2024-03-25T06:07:08;99069.01;;;5.08;100.00
42067;BME280;27734;47.028;28.820;2024-03-25T06:09:38;99065.50;;;5.08;100.00
42067;BME280;27734;47.028;28.820;2024-03-25T06:12:09;99076.86;;;5.10;100.00
42067;BME280;27734;47.028;28.820;2024-03-25T06:14:39;99081.95;;;5.07;100.00
42067;BME280;27734;47.028;28.820;2024-03-25T06:17:10;99095.01;;;5.08;100.00
42067;BME280;27734;47.028;28.820;2024-03-25T06:19:40;99092.41;;;5.08;100.00
42067;BME280;27734;47.028;28.820;2024-03-25T06:22:10;99099.36;;;5.09;100.00
42067;BME280;27734;47.028;28.820;2024-03-25T06:24:41;99091.50;;;5.08;100.00
42067;BME280;27734;47.028;28.820;2024-03-25T06:27:12;99093.23;;;5.07;100.00
42067;BME280;27734;47.028;28.820;2024-03-25T06:29:42;99087.05;;;5.03;100.00
42067;BME280;27734;47.028;28.820;2024-03-25T06:32:17;99079.96;;;4.99;100.00
42067;BME280;27734;47.028;28.820;2024-03-25T06:35:07;99076.43;;;4.97;100.00
42067;BME280;27734;47.028;28.820;2024-03-25T06:37:37;99070.27;;;4.95;100.00
42067;BME280;27734;47.028;28.820;2024-03-25T06:40:12;99073.62;;;4.91;100.00
42067;BME280;27734;47.028;28.820;2024-03-25T06:42:42;99076.98;;;4.89;100.00
42067;BME280;27734;47.028;28.820;2024-03-25T06:45:13;99069.13;;;4.87;100.00
42067;BME280;27734;47.028;28.820;2024-03-25T06:47:45;99063.87;;;4.85;100.00
42067;BME280;27734;47.028;28.820;2024-03-25T06:50:18;99064.75;;;4.86;100.00
42067;BME280;27734;47.028;28.820;2024-03-25T06:52:51;99074.22;;;4.84;100.00
42067;BME280;27734;47.028;28.820;2024-03-25T06:55:22;99075.31;;;4.91;100.00
42067;BME280;27734;47.028;28.820;2024-03-25T06:57:53;99091.87;;;4.93;100.00
42067;BME280;27734;47.028;28.820;2024-03-25T07:00:26;99086.50;;;4.88;100.00
42067;BME280;27734;47.028;28.820;2024-03-25T07:02:57;99084.83;;;4.90;100.00
42067;BME280;27734;47.028;28.820;2024-03-25T07:05:29;99081.41;;;4.91;100.00
42067;BME280;27734;47.028;28.820;2024-03-25T07:08:00;99083.27;;;4.95;100.00
42067;BME280;27734;47.028;28.820;2024-03-25T07:10:30;99095.45;;;4.96;100.00
42067;BME280;27734;47.028;28.820;2024-03-25T07:13:01;99107.52;;;4.94;100.00
42067;BME280;27734;47.028;28.820;2024-03-25T07:15:33;99098.65;;;4.89;100.00
42067;BME280;27734;47.028;28.820;2024-03-25T07:18:04;99120.35;;;4.90;100.00
42067;BME280;27734;47.028;28.820;2024-03-25T07:20:36;99107.08;;;4.82;100.00
42067;BME280;27734;47.028;28.820;2024-03-25T07:23:09;99093.97;;;4.79;100.00
42067;BME280;27734;47.028;28.820;2024-03-25T07:25:41;99088.83;;;4.80;100.00
42067;BME280;27734;47.028;28.820;2024-03-25T07:28:13;99099.28;;;4.82;100.00
42067;BME280;27734;47.028;28.820;2024-03-25T07:30:45;99104.53;;;4.83;100.00
42067;BME280;27734;47.028;28.820;2024-03-25T07:33:15;99085.95;;;4.73;100.00
42067;BME280;27734;47.028;28.820;2024-03-25T07:35:47;99094.90;;;4.81;100.00
42067;BME280;27734;47.028;28.820;2024-03-25T07:38:18;99093.12;;;4.80;100.00
42067;BME280;27734;47.028;28.820;2024-03-25T07:40:48;99087.86;;;4.78;100.00
42067;BME280;27734;47.028;28.820;2024-03-25T07:43:18;99094.90;;;4.81;100.00
42067;BME280;27734;47.028;28.820;2024-03-25T07:45:49;99081.80;;;4.78;100.00
42067;BME280;27734;47.028;28.820;2024-03-25T07:48:20;99093.86;;;4.76;100.00
42067;BME280;27734;47.028;28.820;2024-03-25T07:50:52;99084.22;;;4.73;100.00
42067;BME280;27734;47.028;28.820;2024-03-25T07:53:23;99077.36;;;4.75;100.00
42067;BME280;27734;47.028;28.820;2024-03-25T07:55:55;99078.37;;;4.79;100.00
42067;BME280;27734;47.028;28.820;2024-03-25T07:58:27;99085.20;;;4.77;100.00
42067;BME280;27734;47.028;28.820;2024-03-25T08:00:58;99090.35;;;4.75;100.00
42067;BME280;27734;47.028;28.820;2024-03-25T08:03:29;99095.61;;;4.77;100.00
42067;BME280;27734;47.028;28.820;2024-03-25T08:06:00;99098.26;;;4.78;100.00
42067;BME280;27734;47.028;28.820;2024-03-25T08:08:31;99098.20;;;4.77;100.00
42067;BME280;27734;47.028;28.820;2024-03-25T08:11:04;99092.70;;;4.67;100.00
42067;BME280;27734;47.028;28.820;2024-03-25T08:13:35;99108.52;;;4.74;100.00
42067;BME280;27734;47.028;28.820;2024-03-25T08:16:08;99105.64;;;4.66;100.00
42067;BME280;27734;47.028;28.820;2024-03-25T08:18:40;99102.92;;;4.63;100.00
42067;BME280;27734;47.028;28.820;2024-03-25T08:21:14;99121.81;;;4.59;100.00
42067;BME280;27734;47.028;28.820;2024-03-25T08:23:47;99119.10;;;4.56;100.00
42067;BME280;27734;47.028;28.820;2024-03-25T08:26:20;99112.19;;;4.56;100.00
42067;BME280;27734;47.028;28.820;2024-03-25T08:28:51;99116.56;;;4.57;100.00
42067;BME280;27734;47.028;28.820;2024-03-25T08:31:30;99113.97;;;4.57;100.00
42067;BME280;27734;47.028;28.820;2024-03-25T08:34:09;99117.44;;;4.58;100.00
42067;BME280;27734;47.028;28.820;2024-03-25T08:36:42;99121.00;;;4.60;100.00
42067;BME280;27734;47.028;28.820;2024-03-25T08:39:26;99115.13;;;4.65;100.00
42067;BME280;27734;47.028;28.820;2024-03-25T08:41:56;99112.53;;;4.65;100.00
42067;BME280;27734;47.028;28.820;2024-03-25T08:48:28;99108.52;;;4.74;100.00
42067;BME280;27734;47.028;28.820;2024-03-25T08:51:00;99113.73;;;4.75;100.00
42067;BME280;27734;47.028;28.820;2024-03-25T08:56:57;99124.30;;;4.80;100.00
42067;BME280;27734;47.028;28.820;2024-03-25T08:59:33;99126.91;;;4.80;100.00
42067;BME280;27734;47.028;28.820;2024-03-25T09:02:13;99119.84;;;4.76;100.00
42067;BME280;27734;47.028;28.820;2024-03-25T09:04:45;99124.19;;;4.77;100.00
42067;BME280;27734;47.028;28.820;2024-03-25T09:07:16;99118.99;;;4.77;100.00
42067;BME280;27734;47.028;28.820;2024-03-25T09:09:51;99118.23;;;4.79;100.00
42067;BME280;27734;47.028;28.820;2024-03-25T09:12:43;99119.95;;;4.79;100.00
42067;BME280;27734;47.028;28.820;2024-03-25T09:15:13;99104.53;;;4.83;100.00
42067;BME280;27734;47.028;28.820;2024-03-25T09:17:44;99101.93;;;4.83;100.00
42067;BME280;27734;47.028;28.820;2024-03-25T09:20:14;99095.83;;;4.83;100.00
42067;BME280;27734;47.028;28.820;2024-03-25T09:22:46;99101.66;;;4.76;100.00
42067;BME280;27734;47.028;28.820;2024-03-25T09:25:17;99090.33;;;4.74;100.00
42067;BME280;27734;47.028;28.820;2024-03-25T09:27:56;99086.83;;;4.73;100.00
42067;BME280;27734;47.028;28.820;2024-03-25T09:30:28;99089.48;;;4.75;100.00
42067;BME280;27734;47.028;28.820;2024-03-25T09:32:59;99097.33;;;4.76;100.00
42067;BME280;27734;47.028;28.820;2024-03-25T09:35:29;99096.45;;;4.76;100.00
42067;BME280;27734;47.028;28.820;2024-03-25T09:38:02;99101.71;;;4.77;100.00
42067;BME280;27734;47.028;28.820;2024-03-25T09:40:37;99096.57;;;4.79;100.00
42067;BME280;27734;47.028;28.820;2024-03-25T09:43:16;99092.41;;;4.84;100.00
42067;BME280;27734;47.028;28.820;2024-03-25T09:45:51;99097.72;;;4.87;100.00
42067;BME280;27734;47.028;28.820;2024-03-25T09:48:22;99089.27;;;4.93;100.00
42067;BME280;27734;47.028;28.820;2024-03-25T09:50:53;99083.27;;;4.95;100.00
42067;BME280;27734;47.028;28.820;2024-03-25T09:53:26;99075.47;;;4.95;100.00
42067;BME280;27734;47.028;28.820;2024-03-25T09:55:59;99072.88;;;4.95;100.00
42067;BME280;27734;47.028;28.820;2024-03-25T09:58:32;99073.09;;;5.01;100.00
42067;BME280;27734;47.028;28.820;2024-03-25T10:01:06;99075.63;;;5.00;100.00
42067;BME280;27734;47.028;28.820;2024-03-25T10:03:38;99068.80;;;5.02;100.00
42067;BME280;27734;47.028;28.820;2024-03-25T10:06:09;99062.80;;;5.04;100.00
42067;BME280;27734;47.028;28.820;2024-03-25T10:08:40;99058.50;;;5.05;100.00
42067;BME280;27734;47.028;28.820;2024-03-25T10:11:17;99052.45;;;5.06;100.00
42067;BME280;27734;47.028;28.820;2024-03-25T10:13:49;99059.38;;;5.06;100.00
42067;BME280;27734;47.028;28.820;2024-03-25T10:16:23;99042.00;;;5.04;100.00
42067;BME280;27734;47.028;28.820;2024-03-25T10:18:55;99050.06;;;5.12;100.00
42067;BME280;27734;47.028;28.820;2024-03-25T10:21:26;99038.13;;;5.17;100.00
42067;BME280;27734;47.028;28.820;2024-03-25T10:23:56;99050.38;;;5.21;100.00
42067;BME280;27734;47.028;28.820;2024-03-25T10:26:29;99036.55;;;5.22;100.00
42067;BME280;27734;47.028;28.820;2024-03-25T10:29:04;99034.92;;;5.26;100.00
42067;BME280;27734;47.028;28.820;2024-03-25T10:31:44;99031.61;;;5.30;100.00
42067;BME280;27734;47.028;28.820;2024-03-25T10:34:15;99029.05;;;5.32;100.00
42067;BME280;27734;47.028;28.820;2024-03-25T10:36:45;99028.15;;;5.31;100.00
42067;BME280;27734;47.028;28.820;2024-03-25T10:39:17;99030.65;;;5.28;100.00
42067;BME280;27734;47.028;28.820;2024-03-25T10:41:48;99044.41;;;5.24;100.00
42067;BME280;27734;47.028;28.820;2024-03-25T10:44:19;99026.15;;;5.22;100.00
42067;BME280;27734;47.028;28.820;2024-03-25T10:46:58;99029.67;;;5.25;100.00
42067;BME280;27734;47.028;28.820;2024-03-25T10:49:38;99026.30;;;5.27;100.00
42067;BME280;27734;47.028;28.820;2024-03-25T10:52:13;99009.99;;;5.33;100.00
42067;BME280;27734;47.028;28.820;2024-03-25T10:54:48;99027.42;;;5.35;100.00
42067;BME280;27734;47.028;28.820;2024-03-25T10:57:19;99029.31;;;5.39;100.00
42067;BME280;27734;47.028;28.820;2024-03-25T10:59:51;99019.78;;;5.40;100.00
42067;BME280;27734;47.028;28.820;2024-03-25T11:02:24;99016.41;;;5.43;100.00
42067;BME280;27734;47.028;28.820;2024-03-25T11:04:55;99024.31;;;5.46;100.00
42067;BME280;27734;47.028;28.820;2024-03-25T11:07:32;99013.19;;;5.51;100.00
42067;BME280;27734;47.028;28.820;2024-03-25T11:10:07;99012.61;;;5.60;100.00
42067;BME280;27734;47.028;28.820;2024-03-25T11:12:40;99019.65;;;5.63;100.00
42067;BME280;27734;47.028;28.820;2024-03-25T11:15:13;99013.63;;;5.65;100.00
42067;BME280;27734;47.028;28.820;2024-03-25T11:17:50;99011.89;;;5.64;100.00
42067;BME280;27734;47.028;28.820;2024-03-25T11:20:22;99009.38;;;5.67;100.00
42067;BME280;27734;47.028;28.820;2024-03-25T11:22:53;99003.55;;;5.76;100.00
42067;BME280;27734;47.028;28.820;2024-03-25T11:25:24;99015.98;;;5.85;100.00
42067;BME280;27734;47.028;28.820;2024-03-25T11:27:56;99022.11;;;5.87;100.00
42067;BME280;27734;47.028;28.820;2024-03-25T11:30:29;99009.23;;;5.91;100.00
42067;BME280;27734;47.028;28.820;2024-03-25T11:33:05;99018.09;;;5.97;100.00
42067;BME280;27734;47.028;28.820;2024-03-25T11:35:39;99003.37;;;5.97;100.00
42067;BME280;27734;47.028;28.820;2024-03-25T11:38:45;98996.76;;;6.08;100.00
42067;BME280;27734;47.028;28.820;2024-03-25T11:41:18;99007.91;;;6.04;100.00
42067;BME280;27734;47.028;28.820;2024-03-25T11:43:49;98999.22;;;6.04;100.00
42067;BME280;27734;47.028;28.820;2024-03-25T11:46:24;98994.11;;;6.07;100.00
42067;BME280;27734;47.028;28.820;2024-03-25T11:48:57;99005.53;;;6.12;100.00
42067;BME280;27734;47.028;28.820;2024-03-25T11:51:28;99006.62;;;6.19;100.00
42067;BME280;27734;47.028;28.820;2024-03-25T11:54:15;98990.22;;;6.23;100.00
42067;BME280;27734;47.028;28.820;2024-03-25T11:56:45;98998.85;;;6.20;100.00
42067;BME280;27734;47.028;28.820;2024-03-25T11:59:17;98990.22;;;6.23;100.00
42067;BME280;27734;47.028;28.820;2024-03-25T12:01:49;99006.80;;;6.25;100.00
42067;BME280;27734;47.028;28.820;2024-03-25T12:04:20;98984.05;;;6.19;100.00
42067;BME280;27734;47.028;28.820;2024-03-25T12:06:53;98992.69;;;6.18;100.00
42067;BME280;27734;47.028;28.820;2024-03-25T12:09:24;98984.14;;;6.22;100.00
42067;BME280;27734;47.028;28.820;2024-03-25T12:12:20;98990.31;;;6.26;100.00
42067;BME280;27734;47.028;28.820;2024-03-25T12:14:51;98983.44;;;6.28;100.00
42067;BME280;27734;47.028;28.820;2024-03-25T12:17:25;98993.95;;;6.31;100.00
42067;BME280;27734;47.028;28.820;2024-03-25T12:20:05;98989.75;;;6.36;100.00
42067;BME280;27734;47.028;28.820;2024-03-25T12:22:40;98988.19;;;6.43;100.00
42067;BME280;27734;47.028;28.820;2024-03-25T12:25:12;98986.32;;;6.39;100.00
42067;BME280;27734;47.028;28.820;2024-03-25T12:27:47;98993.27;;;6.38;100.00
42067;BME280;27734;47.028;28.820;2024-03-25T12:30:20;98993.31;;;6.40;100.00
42067;BME280;27734;47.028;28.820;2024-03-25T12:32:55;98993.27;;;6.38;100.00
42067;BME280;27734;47.028;28.820;2024-03-25T12:35:23;99000.99;;;6.35;100.00
42067;BME280;27734;47.028;28.820;2024-03-25T12:37:54;99005.20;;;6.30;100.00
42067;BME280;27734;47.028;28.820;2024-03-25T12:40:30;98996.38;;;6.25;100.00
42067;BME280;27734;47.028;28.820;2024-03-25T12:43:00;99000.64;;;6.23;100.00
42067;BME280;27734;47.028;28.820;2024-03-25T12:45:33;98998.89;;;6.22;100.00
42067;BME280;27734;47.028;28.820;2024-03-25T12:48:06;99001.50;;;6.22;100.00
42067;BME280;27734;47.028;28.820;2024-03-25T12:50:37;98997.12;;;6.21;100.00
42067;BME280;27734;47.028;28.820;2024-03-25T12:53:08;98994.33;;;6.15;100.00
42067;BME280;27734;47.028;28.820;2024-03-25T12:55:38;98997.72;;;6.12;100.00
42067;BME280;27734;47.028;28.820;2024-03-25T12:58:09;98993.19;;;6.05;100.00
42067;BME280;27734;47.028;28.820;2024-03-25T13:00:41;98995.66;;;6.00;100.00
42067;BME280;27734;47.028;28.820;2024-03-25T13:03:12;98991.16;;;5.96;100.00
42067;BME280;27734;47.028;28.820;2024-03-25T13:05:50;98997.09;;;5.92;100.00
42067;BME280;27734;47.028;28.820;2024-03-25T13:08:20;99002.30;;;5.92;100.00
42067;BME280;27734;47.028;28.820;2024-03-25T13:10:51;99004.03;;;5.91;100.00
42067;BME280;27734;47.028;28.820;2024-03-25T13:13:22;99002.16;;;5.87;100.00
42067;BME280;27734;47.028;28.820;2024-03-25T13:15:53;99005.52;;;5.83;100.00
42067;BME280;27734;47.028;28.820;2024-03-25T13:18:26;99005.43;;;5.80;100.00
42067;BME280;27734;47.028;28.820;2024-03-25T13:20:59;99010.50;;;5.75;100.00
42067;BME280;27734;47.028;28.820;2024-03-25T13:23:32;99011.22;;;5.71;100.00
42067;BME280;27734;47.028;28.820;2024-03-25T13:26:03;99019.80;;;5.67;100.00